RO-0017 weather

Aerodrom Cioca
Cioca, Timiş, Romania

Public forecast

Using degrees Celsius for public forecast. Weather courtesy of forecast.io.

Closest aviation weather report (METAR) to Aerodrom Cioca

Closest report is Timişoara Traian Vuia Airport, 6.3 nm (11.7 km) ENE. Retrieved 2019/12/12 13:30 UTC (0 seconds ago):

LRTR 121330Z 11006KT CAVOK 06/04 Q1006 NOSIG

Closest aviation forecast (TAF) to Aerodrom Cioca

Closest forecast is Timişoara Traian Vuia Airport, 6.3 nm (11.7 km) ENE. Retrieved 2019/12/12 12:33 UTC (49 minutes ago):

TAF LRTR 121100Z 1212/1312 11008KT 9999 SCT030 BECMG 1216/1218 5000 -RA BR BKN015 BKN030 TEMPO 1221/1304 3000 RA BR BKN010 FEW025CB OVC030 BECMG 1305/1307 9999 NSW SCT015 BKN040 BECMG 1308/1310 18012KT